sensor_id;sensor_type;location;lat;lon;timestamp;P1;durP1;ratioP1;P2;durP2;ratioP2
24644;SDS011;12780;45.502;9.146;2022-12-18T00:01:29;29.98;;;16.90;;
24644;SDS011;12780;45.502;9.146;2022-12-18T00:04:00;30.92;;;17.38;;
24644;SDS011;12780;45.502;9.146;2022-12-18T00:06:27;31.88;;;17.60;;
24644;SDS011;12780;45.502;9.146;2022-12-18T00:08:54;36.38;;;20.45;;
24644;SDS011;12780;45.502;9.146;2022-12-18T00:11:23;38.78;;;20.65;;
24644;SDS011;12780;45.502;9.146;2022-12-18T00:13:49;43.33;;;21.83;;
24644;SDS011;12780;45.502;9.146;2022-12-18T00:16:17;36.92;;;20.52;;
24644;SDS011;12780;45.502;9.146;2022-12-18T00:18:45;35.17;;;18.55;;
24644;SDS011;12780;45.502;9.146;2022-12-18T00:21:12;31.35;;;17.90;;
24644;SDS011;12780;45.502;9.146;2022-12-18T00:23:38;31.00;;;18.40;;
24644;SDS011;12780;45.502;9.146;2022-12-18T00:26:06;29.60;;;17.02;;
24644;SDS011;12780;45.502;9.146;2022-12-18T00:28:35;31.23;;;18.02;;
24644;SDS011;12780;45.502;9.146;2022-12-18T00:31:04;28.25;;;16.50;;
24644;SDS011;12780;45.502;9.146;2022-12-18T00:33:32;27.48;;;16.23;;
24644;SDS011;12780;45.502;9.146;2022-12-18T00:36:19;28.30;;;16.17;;
24644;SDS011;12780;45.502;9.146;2022-12-18T00:38:47;26.70;;;16.08;;
24644;SDS011;12780;45.502;9.146;2022-12-18T00:41:14;26.73;;;16.33;;
24644;SDS011;12780;45.502;9.146;2022-12-18T00:44:04;26.92;;;16.73;;
24644;SDS011;12780;45.502;9.146;2022-12-18T00:46:30;30.88;;;16.73;;
24644;SDS011;12780;45.502;9.146;2022-12-18T00:48:56;24.15;;;15.50;;
24644;SDS011;12780;45.502;9.146;2022-12-18T00:51:22;29.38;;;15.70;;
24644;SDS011;12780;45.502;9.146;2022-12-18T00:53:49;29.40;;;16.02;;
24644;SDS011;12780;45.502;9.146;2022-12-18T00:56:14;30.40;;;16.08;;
24644;SDS011;12780;45.502;9.146;2022-12-18T00:58:40;31.30;;;16.30;;
24644;SDS011;12780;45.502;9.146;2022-12-18T01:01:06;26.67;;;16.33;;
24644;SDS011;12780;45.502;9.146;2022-12-18T01:03:32;25.15;;;16.05;;
24644;SDS011;12780;45.502;9.146;2022-12-18T01:05:57;26.27;;;16.08;;
24644;SDS011;12780;45.502;9.146;2022-12-18T01:08:23;26.27;;;15.77;;
24644;SDS011;12780;45.502;9.146;2022-12-18T01:10:50;29.65;;;16.73;;
24644;SDS011;12780;45.502;9.146;2022-12-18T01:13:16;31.77;;;16.55;;
24644;SDS011;12780;45.502;9.146;2022-12-18T01:15:47;29.90;;;16.90;;
24644;SDS011;12780;45.502;9.146;2022-12-18T01:18:16;27.65;;;17.13;;
24644;SDS011;12780;45.502;9.146;2022-12-18T01:20:42;28.83;;;16.20;;
24644;SDS011;12780;45.502;9.146;2022-12-18T01:23:07;29.05;;;16.92;;
24644;SDS011;12780;45.502;9.146;2022-12-18T01:25:35;31.23;;;17.90;;
24644;SDS011;12780;45.502;9.146;2022-12-18T01:28:01;34.53;;;18.75;;
24644;SDS011;12780;45.502;9.146;2022-12-18T01:30:27;37.58;;;20.48;;
24644;SDS011;12780;45.502;9.146;2022-12-18T01:32:53;38.65;;;20.33;;
24644;SDS011;12780;45.502;9.146;2022-12-18T01:35:18;53.13;;;23.50;;
24644;SDS011;12780;45.502;9.146;2022-12-18T01:37:44;51.70;;;22.55;;
24644;SDS011;12780;45.502;9.146;2022-12-18T01:40:10;48.80;;;23.38;;
24644;SDS011;12780;45.502;9.146;2022-12-18T01:42:35;56.80;;;24.42;;
24644;SDS011;12780;45.502;9.146;2022-12-18T01:45:03;48.13;;;22.15;;
24644;SDS011;12780;45.502;9.146;2022-12-18T01:47:39;52.15;;;23.48;;
24644;SDS011;12780;45.502;9.146;2022-12-18T01:50:38;55.65;;;23.40;;
24644;SDS011;12780;45.502;9.146;2022-12-18T01:55:55;61.08;;;24.00;;
24644;SDS011;12780;45.502;9.146;2022-12-18T01:58:30;63.97;;;24.20;;
24644;SDS011;12780;45.502;9.146;2022-12-18T02:01:04;58.10;;;23.33;;
24644;SDS011;12780;45.502;9.146;2022-12-18T02:03:30;63.30;;;26.50;;
24644;SDS011;12780;45.502;9.146;2022-12-18T02:08:22;70.60;;;27.80;;
24644;SDS011;12780;45.502;9.146;2022-12-18T02:16:24;82.70;;;30.23;;
24644;SDS011;12780;45.502;9.146;2022-12-18T02:19:09;89.28;;;30.73;;
24644;SDS011;12780;45.502;9.146;2022-12-18T02:21:56;92.05;;;31.52;;
24644;SDS011;12780;45.502;9.146;2022-12-18T02:24:40;89.32;;;29.92;;
24644;SDS011;12780;45.502;9.146;2022-12-18T02:27:18;90.70;;;29.73;;
24644;SDS011;12780;45.502;9.146;2022-12-18T02:29:46;79.30;;;29.33;;
24644;SDS011;12780;45.502;9.146;2022-12-18T02:32:18;87.53;;;29.95;;
24644;SDS011;12780;45.502;9.146;2022-12-18T02:34:49;90.20;;;29.75;;
24644;SDS011;12780;45.502;9.146;2022-12-18T02:37:17;90.63;;;29.75;;
24644;SDS011;12780;45.502;9.146;2022-12-18T02:39:45;96.60;;;31.90;;
24644;SDS011;12780;45.502;9.146;2022-12-18T02:42:13;92.28;;;32.95;;
24644;SDS011;12780;45.502;9.146;2022-12-18T02:44:43;92.15;;;32.55;;
24644;SDS011;12780;45.502;9.146;2022-12-18T02:47:11;97.95;;;33.53;;
24644;SDS011;12780;45.502;9.146;2022-12-18T02:49:40;82.38;;;29.92;;
24644;SDS011;12780;45.502;9.146;2022-12-18T02:52:28;82.50;;;31.05;;
24644;SDS011;12780;45.502;9.146;2022-12-18T02:55:02;79.35;;;30.02;;
24644;SDS011;12780;45.502;9.146;2022-12-18T03:00:18;82.90;;;30.20;;
24644;SDS011;12780;45.502;9.146;2022-12-18T03:05:52;85.97;;;31.20;;
24644;SDS011;12780;45.502;9.146;2022-12-18T03:08:24;81.07;;;29.42;;
24644;SDS011;12780;45.502;9.146;2022-12-18T03:10:57;75.00;;;27.92;;
24644;SDS011;12780;45.502;9.146;2022-12-18T03:13:48;62.75;;;26.23;;
24644;SDS011;12780;45.502;9.146;2022-12-18T03:16:22;58.80;;;25.60;;
24644;SDS011;12780;45.502;9.146;2022-12-18T03:18:52;62.50;;;25.42;;
24644;SDS011;12780;45.502;9.146;2022-12-18T03:21:23;74.53;;;26.80;;
24644;SDS011;12780;45.502;9.146;2022-12-18T03:23:54;62.75;;;25.42;;
24644;SDS011;12780;45.502;9.146;2022-12-18T03:26:22;59.30;;;23.85;;
24644;SDS011;12780;45.502;9.146;2022-12-18T03:28:52;67.78;;;26.95;;
24644;SDS011;12780;45.502;9.146;2022-12-18T03:31:23;64.70;;;26.23;;
24644;SDS011;12780;45.502;9.146;2022-12-18T03:33:53;64.88;;;26.40;;
24644;SDS011;12780;45.502;9.146;2022-12-18T03:36:21;64.90;;;26.90;;
24644;SDS011;12780;45.502;9.146;2022-12-18T03:38:47;68.38;;;26.63;;
24644;SDS011;12780;45.502;9.146;2022-12-18T03:41:32;66.47;;;27.05;;
24644;SDS011;12780;45.502;9.146;2022-12-18T03:47:29;86.80;;;26.30;;
24644;SDS011;12780;45.502;9.146;2022-12-18T03:50:18;61.25;;;26.20;;
24644;SDS011;12780;45.502;9.146;2022-12-18T03:52:50;62.03;;;25.02;;
24644;SDS011;12780;45.502;9.146;2022-12-18T03:55:22;58.70;;;24.00;;
24644;SDS011;12780;45.502;9.146;2022-12-18T03:57:50;60.85;;;24.92;;
24644;SDS011;12780;45.502;9.146;2022-12-18T04:00:18;56.60;;;25.73;;
24644;SDS011;12780;45.502;9.146;2022-12-18T04:02:46;56.10;;;24.70;;
24644;SDS011;12780;45.502;9.146;2022-12-18T04:05:16;52.63;;;23.77;;
24644;SDS011;12780;45.502;9.146;2022-12-18T04:07:43;53.17;;;23.42;;
24644;SDS011;12780;45.502;9.146;2022-12-18T04:10:11;57.70;;;24.17;;
24644;SDS011;12780;45.502;9.146;2022-12-18T04:12:38;54.60;;;24.13;;
24644;SDS011;12780;45.502;9.146;2022-12-18T04:15:04;62.88;;;25.58;;
24644;SDS011;12780;45.502;9.146;2022-12-18T04:17:30;64.60;;;25.58;;
24644;SDS011;12780;45.502;9.146;2022-12-18T04:19:56;55.25;;;26.15;;
24644;SDS011;12780;45.502;9.146;2022-12-18T04:22:21;56.55;;;25.08;;
24644;SDS011;12780;45.502;9.146;2022-12-18T04:24:47;60.78;;;26.23;;
24644;SDS011;12780;45.502;9.146;2022-12-18T04:27:13;63.15;;;26.40;;
24644;SDS011;12780;45.502;9.146;2022-12-18T04:29:38;60.63;;;25.83;;
24644;SDS011;12780;45.502;9.146;2022-12-18T04:32:04;55.83;;;25.02;;
24644;SDS011;12780;45.502;9.146;2022-12-18T04:34:30;63.83;;;24.58;;
24644;SDS011;12780;45.502;9.146;2022-12-18T04:36:55;49.05;;;23.73;;
24644;SDS011;12780;45.502;9.146;2022-12-18T04:39:21;48.95;;;22.42;;
24644;SDS011;12780;45.502;9.146;2022-12-18T04:41:46;49.63;;;22.95;;
24644;SDS011;12780;45.502;9.146;2022-12-18T04:44:12;53.72;;;22.45;;
24644;SDS011;12780;45.502;9.146;2022-12-18T04:46:38;48.50;;;22.05;;
24644;SDS011;12780;45.502;9.146;2022-12-18T04:49:03;46.88;;;22.02;;
24644;SDS011;12780;45.502;9.146;2022-12-18T04:51:29;47.92;;;22.10;;
24644;SDS011;12780;45.502;9.146;2022-12-18T04:53:55;51.85;;;22.75;;
24644;SDS011;12780;45.502;9.146;2022-12-18T04:56:20;53.65;;;21.98;;
24644;SDS011;12780;45.502;9.146;2022-12-18T04:58:46;46.65;;;21.70;;
24644;SDS011;12780;45.502;9.146;2022-12-18T05:01:12;53.10;;;23.25;;
24644;SDS011;12780;45.502;9.146;2022-12-18T05:03:39;48.70;;;21.90;;
24644;SDS011;12780;45.502;9.146;2022-12-18T05:06:05;50.38;;;21.98;;
24644;SDS011;12780;45.502;9.146;2022-12-18T05:08:31;50.15;;;22.80;;
24644;SDS011;12780;45.502;9.146;2022-12-18T05:11:04;46.45;;;22.73;;
24644;SDS011;12780;45.502;9.146;2022-12-18T05:13:32;45.45;;;21.70;;
24644;SDS011;12780;45.502;9.146;2022-12-18T05:15:58;53.08;;;22.65;;
24644;SDS011;12780;45.502;9.146;2022-12-18T05:18:24;49.58;;;22.73;;
24644;SDS011;12780;45.502;9.146;2022-12-18T05:20:51;51.30;;;23.00;;
24644;SDS011;12780;45.502;9.146;2022-12-18T05:23:18;52.13;;;22.63;;
24644;SDS011;12780;45.502;9.146;2022-12-18T05:25:50;44.45;;;22.45;;
24644;SDS011;12780;45.502;9.146;2022-12-18T05:28:17;46.83;;;21.85;;
24644;SDS011;12780;45.502;9.146;2022-12-18T05:30:44;44.85;;;21.73;;
24644;SDS011;12780;45.502;9.146;2022-12-18T05:33:13;48.85;;;22.05;;
24644;SDS011;12780;45.502;9.146;2022-12-18T05:35:38;45.78;;;22.40;;
24644;SDS011;12780;45.502;9.146;2022-12-18T05:38:04;48.22;;;22.73;;
24644;SDS011;12780;45.502;9.146;2022-12-18T05:40:30;50.47;;;22.60;;
24644;SDS011;12780;45.502;9.146;2022-12-18T05:42:55;51.90;;;22.95;;
24644;SDS011;12780;45.502;9.146;2022-12-18T05:45:21;50.35;;;23.52;;
24644;SDS011;12780;45.502;9.146;2022-12-18T05:47:46;47.65;;;22.17;;
24644;SDS011;12780;45.502;9.146;2022-12-18T05:50:12;53.80;;;23.60;;
24644;SDS011;12780;45.502;9.146;2022-12-18T05:52:37;50.50;;;23.85;;
24644;SDS011;12780;45.502;9.146;2022-12-18T05:55:03;46.00;;;23.40;;
24644;SDS011;12780;45.502;9.146;2022-12-18T05:57:29;49.47;;;23.48;;
24644;SDS011;12780;45.502;9.146;2022-12-18T05:59:55;50.92;;;23.40;;
24644;SDS011;12780;45.502;9.146;2022-12-18T06:02:21;50.90;;;23.58;;
24644;SDS011;12780;45.502;9.146;2022-12-18T06:04:46;59.75;;;24.63;;
24644;SDS011;12780;45.502;9.146;2022-12-18T06:07:12;52.67;;;23.02;;
24644;SDS011;12780;45.502;9.146;2022-12-18T06:09:37;52.38;;;23.85;;
24644;SDS011;12780;45.502;9.146;2022-12-18T06:12:03;49.88;;;23.02;;
24644;SDS011;12780;45.502;9.146;2022-12-18T06:14:29;59.15;;;26.00;;
24644;SDS011;12780;45.502;9.146;2022-12-18T06:16:54;52.42;;;24.38;;
24644;SDS011;12780;45.502;9.146;2022-12-18T06:19:20;50.72;;;23.52;;
24644;SDS011;12780;45.502;9.146;2022-12-18T06:21:45;52.40;;;23.23;;
24644;SDS011;12780;45.502;9.146;2022-12-18T06:24:11;54.80;;;24.20;;
24644;SDS011;12780;45.502;9.146;2022-12-18T06:26:38;53.35;;;23.75;;
24644;SDS011;12780;45.502;9.146;2022-12-18T06:29:04;52.28;;;23.15;;
24644;SDS011;12780;45.502;9.146;2022-12-18T06:31:29;55.28;;;23.02;;
24644;SDS011;12780;45.502;9.146;2022-12-18T06:33:55;57.13;;;24.15;;
24644;SDS011;12780;45.502;9.146;2022-12-18T06:36:21;54.13;;;24.85;;
24644;SDS011;12780;45.502;9.146;2022-12-18T06:38:46;53.33;;;24.15;;
24644;SDS011;12780;45.502;9.146;2022-12-18T06:41:13;58.47;;;23.95;;
24644;SDS011;12780;45.502;9.146;2022-12-18T06:43:40;55.92;;;23.02;;
24644;SDS011;12780;45.502;9.146;2022-12-18T06:46:06;55.78;;;24.33;;
24644;SDS011;12780;45.502;9.146;2022-12-18T06:48:32;53.95;;;24.10;;
24644;SDS011;12780;45.502;9.146;2022-12-18T06:50:58;57.67;;;25.08;;
24644;SDS011;12780;45.502;9.146;2022-12-18T06:53:24;52.25;;;23.90;;
24644;SDS011;12780;45.502;9.146;2022-12-18T06:55:49;60.45;;;24.27;;
24644;SDS011;12780;45.502;9.146;2022-12-18T06:58:15;55.30;;;23.52;;
24644;SDS011;12780;45.502;9.146;2022-12-18T07:00:41;54.47;;;23.20;;
24644;SDS011;12780;45.502;9.146;2022-12-18T07:03:06;48.45;;;22.77;;
24644;SDS011;12780;45.502;9.146;2022-12-18T07:05:32;49.80;;;23.60;;
24644;SDS011;12780;45.502;9.146;2022-12-18T07:07:58;51.95;;;23.48;;
24644;SDS011;12780;45.502;9.146;2022-12-18T07:10:24;47.97;;;22.65;;
24644;SDS011;12780;45.502;9.146;2022-12-18T07:12:49;49.08;;;22.77;;
24644;SDS011;12780;45.502;9.146;2022-12-18T07:15:15;49.80;;;22.77;;
24644;SDS011;12780;45.502;9.146;2022-12-18T07:17:41;51.88;;;22.95;;
24644;SDS011;12780;45.502;9.146;2022-12-18T07:20:06;51.35;;;22.58;;
24644;SDS011;12780;45.502;9.146;2022-12-18T07:22:32;54.38;;;23.55;;
24644;SDS011;12780;45.502;9.146;2022-12-18T07:24:58;65.70;;;23.40;;
24644;SDS011;12780;45.502;9.146;2022-12-18T07:27:23;57.10;;;25.00;;
24644;SDS011;12780;45.502;9.146;2022-12-18T07:29:49;50.92;;;22.55;;
24644;SDS011;12780;45.502;9.146;2022-12-18T07:32:15;46.85;;;22.10;;
24644;SDS011;12780;45.502;9.146;2022-12-18T07:34:40;49.45;;;23.00;;
24644;SDS011;12780;45.502;9.146;2022-12-18T07:37:06;46.10;;;22.33;;
24644;SDS011;12780;45.502;9.146;2022-12-18T07:39:32;42.45;;;21.42;;
24644;SDS011;12780;45.502;9.146;2022-12-18T07:41:57;43.63;;;21.42;;
24644;SDS011;12780;45.502;9.146;2022-12-18T07:44:42;42.88;;;20.58;;
24644;SDS011;12780;45.502;9.146;2022-12-18T07:47:07;41.75;;;20.25;;
24644;SDS011;12780;45.502;9.146;2022-12-18T07:49:33;44.60;;;20.55;;
24644;SDS011;12780;45.502;9.146;2022-12-18T07:51:58;43.63;;;21.52;;
24644;SDS011;12780;45.502;9.146;2022-12-18T07:54:24;49.33;;;21.85;;
24644;SDS011;12780;45.502;9.146;2022-12-18T07:56:50;43.25;;;21.35;;
24644;SDS011;12780;45.502;9.146;2022-12-18T07:59:16;44.67;;;21.27;;
24644;SDS011;12780;45.502;9.146;2022-12-18T08:01:42;49.17;;;22.45;;
24644;SDS011;12780;45.502;9.146;2022-12-18T08:04:08;44.00;;;21.20;;
24644;SDS011;12780;45.502;9.146;2022-12-18T08:06:34;47.13;;;22.45;;
24644;SDS011;12780;45.502;9.146;2022-12-18T08:08:59;47.72;;;22.25;;
24644;SDS011;12780;45.502;9.146;2022-12-18T08:11:26;45.97;;;22.58;;
24644;SDS011;12780;45.502;9.146;2022-12-18T08:13:52;43.88;;;22.95;;
24644;SDS011;12780;45.502;9.146;2022-12-18T08:16:19;47.35;;;22.98;;
24644;SDS011;12780;45.502;9.146;2022-12-18T08:18:45;43.20;;;21.17;;
24644;SDS011;12780;45.502;9.146;2022-12-18T08:21:11;41.88;;;21.80;;
24644;SDS011;12780;45.502;9.146;2022-12-18T08:23:39;42.45;;;21.70;;
24644;SDS011;12780;45.502;9.146;2022-12-18T08:26:05;46.15;;;22.27;;
24644;SDS011;12780;45.502;9.146;2022-12-18T08:28:31;43.65;;;22.45;;
24644;SDS011;12780;45.502;9.146;2022-12-18T08:30:57;45.95;;;22.65;;
24644;SDS011;12780;45.502;9.146;2022-12-18T08:33:22;48.55;;;23.13;;
24644;SDS011;12780;45.502;9.146;2022-12-18T08:35:48;50.05;;;23.45;;
24644;SDS011;12780;45.502;9.146;2022-12-18T08:38:14;50.47;;;23.20;;
24644;SDS011;12780;45.502;9.146;2022-12-18T08:40:39;49.75;;;23.25;;
24644;SDS011;12780;45.502;9.146;2022-12-18T08:43:05;55.22;;;24.42;;
24644;SDS011;12780;45.502;9.146;2022-12-18T08:45:50;55.17;;;24.13;;
24644;SDS011;12780;45.502;9.146;2022-12-18T08:48:16;50.60;;;23.98;;
24644;SDS011;12780;45.502;9.146;2022-12-18T08:50:42;49.97;;;24.33;;
24644;SDS011;12780;45.502;9.146;2022-12-18T08:53:07;51.75;;;23.08;;
24644;SDS011;12780;45.502;9.146;2022-12-18T08:55:33;49.58;;;23.63;;
24644;SDS011;12780;45.502;9.146;2022-12-18T08:57:58;54.45;;;24.88;;
24644;SDS011;12780;45.502;9.146;2022-12-18T09:00:24;54.45;;;26.17;;
24644;SDS011;12780;45.502;9.146;2022-12-18T09:02:50;56.33;;;24.90;;
24644;SDS011;12780;45.502;9.146;2022-12-18T09:05:15;53.33;;;25.02;;
24644;SDS011;12780;45.502;9.146;2022-12-18T09:07:41;51.40;;;22.88;;
24644;SDS011;12780;45.502;9.146;2022-12-18T09:10:06;53.85;;;23.83;;
24644;SDS011;12780;45.502;9.146;2022-12-18T09:12:32;49.83;;;24.30;;
24644;SDS011;12780;45.502;9.146;2022-12-18T09:14:58;53.20;;;24.15;;
24644;SDS011;12780;45.502;9.146;2022-12-18T09:17:23;53.80;;;24.05;;
24644;SDS011;12780;45.502;9.146;2022-12-18T09:19:49;51.67;;;24.65;;
24644;SDS011;12780;45.502;9.146;2022-12-18T09:22:15;54.80;;;24.10;;
24644;SDS011;12780;45.502;9.146;2022-12-18T09:24:40;47.80;;;23.45;;
24644;SDS011;12780;45.502;9.146;2022-12-18T09:27:06;58.25;;;26.30;;
24644;SDS011;12780;45.502;9.146;2022-12-18T09:29:32;55.25;;;25.17;;
24644;SDS011;12780;45.502;9.146;2022-12-18T09:31:57;58.40;;;25.95;;
24644;SDS011;12780;45.502;9.146;2022-12-18T09:34:23;52.65;;;25.42;;
24644;SDS011;12780;45.502;9.146;2022-12-18T09:36:49;54.90;;;26.73;;
24644;SDS011;12780;45.502;9.146;2022-12-18T09:39:14;55.58;;;26.25;;
24644;SDS011;12780;45.502;9.146;2022-12-18T09:41:53;56.50;;;26.67;;
24644;SDS011;12780;45.502;9.146;2022-12-18T09:44:26;68.10;;;28.35;;
24644;SDS011;12780;45.502;9.146;2022-12-18T09:52:17;58.70;;;25.85;;
24644;SDS011;12780;45.502;9.146;2022-12-18T09:55:00;67.25;;;27.27;;
24644;SDS011;12780;45.502;9.146;2022-12-18T09:57:45;59.33;;;24.77;;
24644;SDS011;12780;45.502;9.146;2022-12-18T10:00:20;54.72;;;25.25;;
24644;SDS011;12780;45.502;9.146;2022-12-18T10:02:47;58.20;;;26.00;;
24644;SDS011;12780;45.502;9.146;2022-12-18T10:05:14;53.00;;;25.08;;
24644;SDS011;12780;45.502;9.146;2022-12-18T10:08:04;59.33;;;25.30;;
24644;SDS011;12780;45.502;9.146;2022-12-18T10:10:41;58.92;;;25.15;;
24644;SDS011;12780;45.502;9.146;2022-12-18T10:13:36;51.97;;;24.83;;
24644;SDS011;12780;45.502;9.146;2022-12-18T10:16:26;54.78;;;24.92;;
24644;SDS011;12780;45.502;9.146;2022-12-18T10:19:03;51.55;;;23.65;;
24644;SDS011;12780;45.502;9.146;2022-12-18T10:21:54;49.33;;;23.13;;
24644;SDS011;12780;45.502;9.146;2022-12-18T10:24:37;51.05;;;22.55;;
24644;SDS011;12780;45.502;9.146;2022-12-18T10:27:18;44.28;;;22.27;;
24644;SDS011;12780;45.502;9.146;2022-12-18T10:29:46;46.92;;;22.55;;
24644;SDS011;12780;45.502;9.146;2022-12-18T10:32:19;49.88;;;23.63;;
24644;SDS011;12780;45.502;9.146;2022-12-18T10:34:47;47.25;;;23.85;;
24644;SDS011;12780;45.502;9.146;2022-12-18T10:37:15;49.17;;;23.83;;
24644;SDS011;12780;45.502;9.146;2022-12-18T10:40:11;52.78;;;24.13;;
24644;SDS011;12780;45.502;9.146;2022-12-18T10:42:39;46.90;;;23.02;;
24644;SDS011;12780;45.502;9.146;2022-12-18T10:45:09;45.28;;;24.10;;
24644;SDS011;12780;45.502;9.146;2022-12-18T10:47:43;47.42;;;23.15;;
24644;SDS011;12780;45.502;9.146;2022-12-18T10:50:18;49.45;;;24.08;;
24644;SDS011;12780;45.502;9.146;2022-12-18T10:52:59;48.22;;;23.60;;
24644;SDS011;12780;45.502;9.146;2022-12-18T10:55:31;50.30;;;24.05;;
24644;SDS011;12780;45.502;9.146;2022-12-18T10:58:13;44.83;;;23.42;;
24644;SDS011;12780;45.502;9.146;2022-12-18T11:01:01;48.70;;;23.30;;
24644;SDS011;12780;45.502;9.146;2022-12-18T11:03:41;44.33;;;22.80;;
24644;SDS011;12780;45.502;9.146;2022-12-18T11:08:41;44.58;;;22.77;;
24644;SDS011;12780;45.502;9.146;2022-12-18T11:11:21;46.67;;;22.98;;
24644;SDS011;12780;45.502;9.146;2022-12-18T11:13:55;47.85;;;22.05;;
24644;SDS011;12780;45.502;9.146;2022-12-18T11:16:33;40.75;;;21.67;;
24644;SDS011;12780;45.502;9.146;2022-12-18T11:19:28;44.35;;;21.63;;
24644;SDS011;12780;45.502;9.146;2022-12-18T11:22:00;42.75;;;21.10;;
24644;SDS011;12780;45.502;9.146;2022-12-18T11:24:42;41.88;;;22.20;;
24644;SDS011;12780;45.502;9.146;2022-12-18T11:27:15;43.70;;;21.88;;
24644;SDS011;12780;45.502;9.146;2022-12-18T11:29:43;43.08;;;22.42;;
24644;SDS011;12780;45.502;9.146;2022-12-18T11:34:44;47.40;;;22.73;;
24644;SDS011;12780;45.502;9.146;2022-12-18T11:37:13;41.78;;;22.83;;
24644;SDS011;12780;45.502;9.146;2022-12-18T11:39:44;43.13;;;21.98;;
24644;SDS011;12780;45.502;9.146;2022-12-18T11:42:28;40.50;;;22.00;;
24644;SDS011;12780;45.502;9.146;2022-12-18T11:45:22;40.35;;;20.45;;
24644;SDS011;12780;45.502;9.146;2022-12-18T11:50:50;39.78;;;21.27;;
24644;SDS011;12780;45.502;9.146;2022-12-18T11:53:17;39.30;;;21.25;;
24644;SDS011;12780;45.502;9.146;2022-12-18T11:55:49;41.67;;;21.45;;
24644;SDS011;12780;45.502;9.146;2022-12-18T12:09:11;44.30;;;22.27;;
24644;SDS011;12780;45.502;9.146;2022-12-18T12:11:58;42.15;;;22.00;;
24644;SDS011;12780;45.502;9.146;2022-12-18T12:14:46;44.35;;;23.35;;
24644;SDS011;12780;45.502;9.146;2022-12-18T12:22:44;55.42;;;27.73;;
24644;SDS011;12780;45.502;9.146;2022-12-18T12:25:29;61.45;;;29.88;;
24644;SDS011;12780;45.502;9.146;2022-12-18T12:33:39;58.72;;;32.13;;
24644;SDS011;12780;45.502;9.146;2022-12-18T12:38:58;62.63;;;32.08;;
24644;SDS011;12780;45.502;9.146;2022-12-18T12:41:27;59.85;;;29.58;;
24644;SDS011;12780;45.502;9.146;2022-12-18T12:44:24;57.50;;;28.85;;
24644;SDS011;12780;45.502;9.146;2022-12-18T12:46:55;56.28;;;29.05;;
24644;SDS011;12780;45.502;9.146;2022-12-18T12:49:25;53.20;;;27.30;;
24644;SDS011;12780;45.502;9.146;2022-12-18T12:51:58;59.00;;;29.02;;
24644;SDS011;12780;45.502;9.146;2022-12-18T12:54:29;65.22;;;30.90;;
24644;SDS011;12780;45.502;9.146;2022-12-18T12:57:00;54.30;;;27.98;;
24644;SDS011;12780;45.502;9.146;2022-12-18T13:00:06;62.10;;;30.33;;
24644;SDS011;12780;45.502;9.146;2022-12-18T13:06:11;63.53;;;29.13;;
24644;SDS011;12780;45.502;9.146;2022-12-18T13:08:51;60.05;;;30.02;;
24644;SDS011;12780;45.502;9.146;2022-12-18T13:11:46;54.38;;;29.33;;
24644;SDS011;12780;45.502;9.146;2022-12-18T13:14:35;57.65;;;28.23;;
24644;SDS011;12780;45.502;9.146;2022-12-18T13:20:02;57.58;;;28.88;;
24644;SDS011;12780;45.502;9.146;2022-12-18T13:22:30;57.77;;;28.70;;
24644;SDS011;12780;45.502;9.146;2022-12-18T13:25:00;56.05;;;28.88;;
24644;SDS011;12780;45.502;9.146;2022-12-18T13:35:39;51.53;;;26.95;;
24644;SDS011;12780;45.502;9.146;2022-12-18T13:38:23;52.77;;;26.13;;
24644;SDS011;12780;45.502;9.146;2022-12-18T13:43:46;50.78;;;25.48;;
24644;SDS011;12780;45.502;9.146;2022-12-18T13:46:27;49.75;;;27.08;;
24644;SDS011;12780;45.502;9.146;2022-12-18T13:49:54;49.38;;;24.75;;
24644;SDS011;12780;45.502;9.146;2022-12-18T13:51:50;45.70;;;24.85;;
24644;SDS011;12780;45.502;9.146;2022-12-18T13:54:32;45.28;;;23.88;;
24644;SDS011;12780;45.502;9.146;2022-12-18T13:57:00;41.88;;;23.55;;
24644;SDS011;12780;45.502;9.146;2022-12-18T13:59:34;43.72;;;23.70;;
24644;SDS011;12780;45.502;9.146;2022-12-18T14:02:13;44.72;;;23.48;;
24644;SDS011;12780;45.502;9.146;2022-12-18T14:04:45;44.30;;;22.55;;
24644;SDS011;12780;45.502;9.146;2022-12-18T14:07:15;42.05;;;23.25;;
24644;SDS011;12780;45.502;9.146;2022-12-18T14:09:47;42.67;;;23.67;;
24644;SDS011;12780;45.502;9.146;2022-12-18T14:12:16;40.67;;;24.33;;
24644;SDS011;12780;45.502;9.146;2022-12-18T14:15:05;42.45;;;24.00;;
24644;SDS011;12780;45.502;9.146;2022-12-18T14:17:42;44.35;;;23.45;;
24644;SDS011;12780;45.502;9.146;2022-12-18T14:20:12;39.83;;;24.05;;
24644;SDS011;12780;45.502;9.146;2022-12-18T14:22:39;42.47;;;23.60;;
24644;SDS011;12780;45.502;9.146;2022-12-18T14:27:41;38.45;;;23.13;;
24644;SDS011;12780;45.502;9.146;2022-12-18T14:30:25;44.80;;;23.95;;
24644;SDS011;12780;45.502;9.146;2022-12-18T14:33:27;45.25;;;24.83;;
24644;SDS011;12780;45.502;9.146;2022-12-18T14:35:54;43.33;;;23.98;;
24644;SDS011;12780;45.502;9.146;2022-12-18T14:38:28;45.63;;;23.90;;
24644;SDS011;12780;45.502;9.146;2022-12-18T14:40:59;45.00;;;23.77;;
24644;SDS011;12780;45.502;9.146;2022-12-18T14:43:27;41.63;;;23.20;;
24644;SDS011;12780;45.502;9.146;2022-12-18T14:45:55;41.80;;;24.10;;
24644;SDS011;12780;45.502;9.146;2022-12-18T14:51:00;45.33;;;23.92;;
24644;SDS011;12780;45.502;9.146;2022-12-18T14:53:47;46.00;;;23.92;;
24644;SDS011;12780;45.502;9.146;2022-12-18T14:56:27;47.80;;;25.67;;
24644;SDS011;12780;45.502;9.146;2022-12-18T14:59:13;42.95;;;25.02;;
24644;SDS011;12780;45.502;9.146;2022-12-18T15:07:19;48.92;;;25.60;;
24644;SDS011;12780;45.502;9.146;2022-12-18T15:10:00;49.58;;;26.27;;
24644;SDS011;12780;45.502;9.146;2022-12-18T15:12:40;48.65;;;25.55;;
24644;SDS011;12780;45.502;9.146;2022-12-18T15:17:59;51.50;;;26.65;;
24644;SDS011;12780;45.502;9.146;2022-12-18T15:20:25;46.30;;;25.17;;
24644;SDS011;12780;45.502;9.146;2022-12-18T15:22:51;48.03;;;25.83;;
24644;SDS011;12780;45.502;9.146;2022-12-18T15:25:34;48.42;;;26.63;;
24644;SDS011;12780;45.502;9.146;2022-12-18T15:28:02;54.83;;;26.23;;
24644;SDS011;12780;45.502;9.146;2022-12-18T15:30:29;52.75;;;27.98;;
24644;SDS011;12780;45.502;9.146;2022-12-18T15:35:42;48.90;;;25.65;;
24644;SDS011;12780;45.502;9.146;2022-12-18T15:38:08;52.70;;;26.83;;
24644;SDS011;12780;45.502;9.146;2022-12-18T15:40:33;57.33;;;27.30;;
24644;SDS011;12780;45.502;9.146;2022-12-18T15:42:59;52.65;;;27.55;;
24644;SDS011;12780;45.502;9.146;2022-12-18T15:45:43;53.30;;;26.30;;
24644;SDS011;12780;45.502;9.146;2022-12-18T15:48:19;51.22;;;27.00;;
24644;SDS011;12780;45.502;9.146;2022-12-18T15:50:46;51.17;;;26.15;;
24644;SDS011;12780;45.502;9.146;2022-12-18T15:53:12;56.38;;;28.08;;
24644;SDS011;12780;45.502;9.146;2022-12-18T15:55:38;50.67;;;27.48;;
24644;SDS011;12780;45.502;9.146;2022-12-18T15:58:22;51.15;;;27.00;;
24644;SDS011;12780;45.502;9.146;2022-12-18T16:00:48;50.17;;;27.20;;
24644;SDS011;12780;45.502;9.146;2022-12-18T16:03:13;58.00;;;27.80;;
24644;SDS011;12780;45.502;9.146;2022-12-18T16:05:39;52.85;;;27.20;;
24644;SDS011;12780;45.502;9.146;2022-12-18T16:08:04;52.92;;;27.17;;
24644;SDS011;12780;45.502;9.146;2022-12-18T16:10:30;50.70;;;26.95;;
24644;SDS011;12780;45.502;9.146;2022-12-18T16:12:56;51.67;;;27.40;;